Terminal Aerodrome Forecast
Issued by NWS

Home | Current Version | Previous Version | Text Only | Print | Product List | Glossary On
Versions: 1 2 3 4 5 6 7 8 9 10 11 12 13 14 15 16 17 18 19 20 21 22 23 24 25 26 27 28 29 30 31 32 33 34 35 36 37
000
FTUS43 KDMX 050520
TAFMCW
TAF
KMCW 050520Z 0506/0606 17006KT P6SM VCSH BKN120
     FM050900 17005KT 6SM BR SCT120
      TEMPO 0509/0512 2SM BR
     FM051600 19013G20KT P6SM FEW040 SCT180
     FM060000 16009KT P6SM SCT180=

USA.gov is the U.S. government's official web portal to all federal, state and local government web resources and services.